Time;durP1;ratioP1;P1;durP2;ratioP2;P2;SDS_P1;SDS_P2;PMS_P1;PMS_P2;Temp;Humidity;BMP_temperature;BMP_pressure;BME280_temperature;BME280_humidity;BME280_pressure;Samples;Min_cycle;Max_cycle;Signal;HPM_P1;HPM_P2
2021/07/21 00:00:22;;;;;;;;;;;;;;;16.12;70.93;102223.22;5075314;28;20372;-36
2021/07/21 00:02:47;;;;;;;10.93;7.93;;;;;;;15.85;73.01;102230.13;5074147;28;19912;-37
2021/07/21 00:05:14;;;;;;;11.63;8.43;;;;;;;15.94;72.87;102237.75;5074732;28;20020;-36
2021/07/21 00:07:40;;;;;;;12.00;8.43;;;;;;;15.82;72.75;102223.28;5074626;28;20078;-36
2021/07/21 00:10:08;;;;;;;12.25;8.82;;;;;;;15.77;73.63;102225.03;5074669;28;20423;-36
2021/07/21 00:15:19;;;;;;;11.80;7.82;;;;;;;15.61;73.35;102215.56;5074552;28;20089;-36
2021/07/21 00:17:45;;;;;;;;;;;;;;;16.02;71.26;102233.88;5074475;28;20086;-36
2021/07/21 00:20:12;;;;;;;11.38;8.15;;;;;;;15.80;73.42;102238.19;5074197;28;19904;-36
2021/07/21 00:22:40;;;;;;;12.52;7.78;;;;;;;15.70;73.99;102242.31;5074595;28;20066;-36
2021/07/21 00:25:09;;;;;;;13.30;8.13;;;;;;;15.76;74.25;102239.72;5074351;28;20024;-36
2021/07/21 00:27:35;;;;;;;13.02;9.48;;;;;;;15.63;73.87;102229.81;5074063;28;20431;-36
2021/07/21 00:30:03;;;;;;;11.90;8.25;;;;;;;15.64;73.89;102247.84;5074244;28;20029;-36
2021/07/21 00:32:28;;;;;;;13.27;8.63;;;;;;;15.59;74.16;102244.97;5074087;28;20085;-36
2021/07/21 00:34:53;;;;;;;14.17;8.30;;;;;;;15.53;74.20;102224.06;5074644;28;20020;-36
2021/07/21 00:37:19;;;;;;;;;;;;;;;15.81;71.72;102229.78;5075029;28;20131;-36
2021/07/21 00:39:44;;;;;;;11.75;8.23;;;;;;;15.60;74.20;102233.81;5074013;28;19904;-36
2021/07/21 00:42:09;;;;;;;11.77;7.90;;;;;;;15.49;74.79;102234.59;5072670;28;20484;-36
2021/07/21 00:44:35;;;;;;;12.60;8.00;;;;;;;15.48;74.97;102238.41;5073942;28;20060;-36
2021/07/21 00:47:01;;;;;;;15.00;9.02;;;;;;;15.49;74.49;102234.59;5074232;28;20270;-36
2021/07/21 00:49:26;;;;;;;10.32;7.93;;;;;;;15.43;75.00;102236.38;5074275;28;20032;-36
2021/07/21 00:51:53;;;;;;;11.98;7.93;;;;;;;15.31;75.13;102229.19;5074214;28;20028;-36
2021/07/21 00:54:19;;;;;;;11.98;8.50;;;;;;;15.26;74.53;102224.41;5073734;28;20350;-36
2021/07/21 00:56:46;;;;;;;13.90;8.15;;;;;;;15.35;75.39;102235.84;5074532;28;20040;-37
2021/07/21 00:59:11;;;;;;;11.68;9.18;;;;;;;15.19;74.58;102224.50;5073881;28;20477;-36
2021/07/21 01:01:37;;;;;;;10.90;7.90;;;;;;;15.06;75.31;102191.13;5074190;28;20086;-36
2021/07/21 01:04:06;;;;;;;12.15;8.18;;;;;;;15.23;75.19;102240.41;5073849;28;20366;-36
2021/07/21 01:06:31;;;;;;;10.85;8.27;;;;;;;15.16;75.10;102230.38;5073552;28;20036;-36
2021/07/21 01:08:58;;;;;;;11.93;9.13;;;;;;;15.08;75.35;102228.00;5073127;28;20016;-36
2021/07/21 01:11:37;;;;;;;12.45;8.25;;;;;;;15.14;75.60;102242.59;5073815;28;20325;-36
2021/07/21 01:14:21;;;;;;;14.75;8.00;;;;;;;15.10;75.87;102239.47;5073146;28;20107;-36
2021/07/21 01:17:18;;;;;;;11.05;8.05;;;;;;;15.20;75.13;102234.34;5073758;28;20113;-36
2021/07/21 01:20:18;;;;;;;9.88;8.20;;;;;;;15.14;75.15;102232.53;5034540;28;20084;-36
2021/07/21 01:22:47;;;;;;;12.23;8.68;;;;;;;15.17;76.04;102229.31;5051502;28;20021;-36
2021/07/21 01:25:18;;;;;;;14.05;8.77;;;;;;;15.08;76.07;102236.16;5050804;28;20464;-36
2021/07/21 01:27:56;;;;;;;12.80;9.25;;;;;;;15.08;75.77;102244.34;5050690;28;20032;-36
2021/07/21 01:30:26;;;;;;;11.90;9.10;;;;;;;15.05;75.77;102233.88;5050857;28;20459;-36
2021/07/21 01:32:57;;;;;;;13.13;9.23;;;;;;;15.01;76.33;102232.66;5050844;28;20071;-36
2021/07/21 01:35:25;;;;;;;17.25;10.52;;;;;;;14.83;76.32;102221.75;5051545;28;20070;-36
2021/07/21 01:37:59;;;;;;;13.48;9.63;;;;;;;14.99;76.08;102240.25;5051132;28;20033;-36
2021/07/21 01:40:36;;;;;;;13.70;9.27;;;;;;;14.87;76.59;102244.75;5051002;28;20322;-36
2021/07/21 01:43:06;;;;;;;17.25;11.02;;;;;;;14.90;76.28;102236.16;5051304;28;20351;-36
2021/07/21 01:45:33;;;;;;;15.50;9.80;;;;;;;14.91;76.30;102243.25;5050616;28;20033;-37
2021/07/21 01:48:00;;;;;;;13.95;10.43;;;;;;;14.82;76.76;102241.88;5051136;28;20147;-36
2021/07/21 01:50:28;;;;;;;13.13;9.45;;;;;;;14.74;76.20;102234.00;5051187;28;20189;-36
2021/07/21 01:52:55;;;;;;;13.05;9.77;;;;;;;14.71;76.64;102231.75;5050438;28;20025;-36
2021/07/21 01:55:21;;;;;;;13.07;9.52;;;;;;;14.70;76.41;102238.25;5054885;28;20039;-36
2021/07/21 01:57:49;;;;;;;16.05;10.20;;;;;;;14.71;76.69;102240.75;5072570;28;20028;-36
2021/07/21 02:00:16;;;;;;;12.25;9.73;;;;;;;14.71;76.86;102242.63;5073132;28;20020;-36
2021/07/21 02:02:44;;;;;;;15.15;10.77;;;;;;;14.78;76.34;102244.22;5072817;28;20373;-36
2021/07/21 02:05:11;;;;;;;15.10;9.80;;;;;;;14.71;77.19;102245.34;5072973;28;20409;-36
2021/07/21 02:07:40;;;;;;;16.27;10.75;;;;;;;14.69;76.94;102248.31;5073179;28;20070;-36
2021/07/21 02:10:06;;;;;;;14.38;10.98;;;;;;;14.54;76.90;102234.19;5072485;28;20054;-36
2021/07/21 02:12:35;;;;;;;13.88;10.00;;;;;;;14.57;77.32;102252.81;5072635;28;20029;-36
2021/07/21 02:15:01;;;;;;;12.23;10.10;;;;;;;14.48;77.47;102237.81;5072716;28;20025;-36
2021/07/21 02:17:27;;;;;;;12.63;9.65;;;;;;;14.53;77.62;102251.59;5072548;28;20117;-36
2021/07/21 02:19:53;;;;;;;13.43;10.02;;;;;;;14.55;77.49;102254.94;5072625;28;20471;-36
2021/07/21 02:22:21;;;;;;;16.10;10.38;;;;;;;14.40;77.50;102241.63;5072587;28;20032;-36
2021/07/21 02:24:47;;;;;;;14.75;9.88;;;;;;;14.37;77.84;102248.34;5072857;28;20408;-36
2021/07/21 02:27:13;;;;;;;16.13;10.60;;;;;;;14.44;77.45;102240.13;5076277;28;20020;-36
2021/07/21 02:29:41;;;;;;;12.80;9.95;;;;;;;14.45;77.69;102255.41;5076454;28;20047;-36
2021/07/21 02:32:14;;;;;;;13.85;10.20;;;;;;;14.43;78.06;102252.06;5076078;28;20020;-36
2021/07/21 02:34:44;;;;;;;13.95;10.68;;;;;;;14.31;78.10;102251.13;5076658;28;20016;-36
2021/07/21 02:37:14;;;;;;;13.85;10.15;;;;;;;14.34;78.15;102264.28;5076641;28;20031;-36
2021/07/21 02:39:41;;;;;;;12.10;9.60;;;;;;;14.33;78.07;102258.00;5077053;28;20157;-36
2021/07/21 02:42:07;;;;;;;13.50;9.75;;;;;;;14.37;78.23;102261.13;5076942;28;20360;-36
2021/07/21 02:44:32;;;;;;;12.50;9.65;;;;;;;14.31;77.92;102253.84;5076479;28;20132;-37
2021/07/21 02:46:57;;;;;;;13.95;9.15;;;;;;;14.31;77.91;102253.84;5076213;28;20461;-36
2021/07/21 02:49:23;;;;;;;12.50;9.38;;;;;;;14.22;78.19;102260.63;5076664;28;20039;-36
2021/07/21 02:52:01;;;;;;;14.53;9.43;;;;;;;14.16;77.91;102249.56;5076298;28;20067;-36
2021/07/21 02:54:26;;;;;;;12.50;9.73;;;;;;;14.16;78.76;102252.28;5076040;28;20051;-36
2021/07/21 02:56:57;;;;;;;12.57;10.03;;;;;;;14.15;78.75;102245.19;5076248;28;20028;-36
2021/07/21 02:59:29;;;;;;;14.52;10.73;;;;;;;14.18;78.17;102265.66;5076221;28;20025;-36
2021/07/21 03:01:59;;;;;;;15.00;9.65;;;;;;;14.33;77.76;102251.72;5076355;28;20024;-37
2021/07/21 03:04:26;;;;;;;14.63;10.27;;;;;;;14.16;77.96;102249.56;5076122;28;20104;-36
2021/07/21 03:06:52;;;;;;;13.18;9.73;;;;;;;14.15;78.48;102258.78;5075549;28;20021;-36
2021/07/21 03:09:20;;;;;;;17.30;9.82;;;;;;;14.13;78.49;102252.72;5075779;28;20052;-36
2021/07/21 03:11:50;;;;;;;11.00;8.93;;;;;;;14.15;78.66;102264.22;5075700;28;20039;-36
2021/07/21 03:14:17;;;;;;;14.00;10.43;;;;;;;14.18;77.92;102269.22;5075395;28;20421;-36
2021/07/21 03:16:47;;;;;;;15.88;11.93;;;;;;;14.08;78.22;102281.63;5075641;28;20028;-36
2021/07/21 03:19:15;;;;;;;13.80;11.55;;;;;;;14.00;78.22;102268.28;5075898;28;20028;-36
2021/07/21 03:21:42;;;;;;;15.27;11.35;;;;;;;14.00;78.16;102263.69;5076085;28;20080;-36
2021/07/21 03:24:08;;;;;;;15.32;11.75;;;;;;;14.09;77.95;102273.25;5075266;28;20104;-36
2021/07/21 03:26:35;;;;;;;16.15;11.68;;;;;;;14.11;77.70;102275.75;5076239;28;20107;-36
2021/07/21 03:29:01;;;;;;;16.25;11.23;;;;;;;14.09;77.72;102273.25;5075544;28;20050;-36
2021/07/21 03:31:26;;;;;;;17.38;11.75;;;;;;;14.03;78.07;102279.56;5076115;28;20032;-36
2021/07/21 03:34:02;;;;;;;17.27;11.45;;;;;;;14.02;78.13;102279.78;5075655;28;20448;-36
2021/07/21 03:36:33;;;;;;;17.10;11.30;;;;;;;14.00;77.83;102277.28;5075840;28;20157;-36
2021/07/21 03:38:59;;;;;;;14.85;11.68;;;;;;;13.97;78.35;102276.91;5075573;28;20021;-36
2021/07/21 03:41:25;;;;;;;15.60;11.77;;;;;;;13.93;78.51;102278.38;5075685;28;20024;-36
2021/07/21 03:43:52;;;;;;;17.35;12.30;;;;;;;13.94;78.79;102274.59;5075353;28;20349;-36
2021/07/21 03:46:19;;;;;;;15.95;11.05;;;;;;;13.86;78.66;102276.53;5074831;28;20169;-36
2021/07/21 03:48:45;;;;;;;16.42;11.57;;;;;;;13.67;78.58;102241.31;5074238;28;20173;-36
2021/07/21 03:51:12;;;;;;;16.40;11.80;;;;;;;13.93;78.64;102284.66;5074133;28;20027;-36
2021/07/21 03:53:39;;;;;;;13.10;10.30;;;;;;;13.84;78.82;102275.91;5073898;28;20107;-36
2021/07/21 03:56:06;;;;;;;15.35;11.30;;;;;;;13.88;78.64;102277.16;5073983;28;20521;-36
2021/07/21 03:58:33;;;;;;;16.45;11.82;;;;;;;13.74;78.41;102277.44;5073573;28;20480;-36
2021/07/21 04:00:59;;;;;;;19.42;10.45;;;;;;;13.83;78.58;102276.97;5073600;28;20107;-36
2021/07/21 04:03:25;;;;;;;16.23;11.02;;;;;;;13.77;78.80;102282.47;5073911;28;20069;-36
2021/07/21 04:05:54;;;;;;;14.23;10.30;;;;;;;13.79;79.11;102272.19;5073611;28;20020;-36
2021/07/21 04:08:21;;;;;;;12.93;10.50;;;;;;;13.84;79.33;102280.53;5073838;28;20024;-36
2021/07/21 04:10:50;;;;;;;14.00;10.27;;;;;;;13.73;79.54;102271.19;5073889;28;20035;-36
2021/07/21 04:13:17;;;;;;;11.98;10.02;;;;;;;13.76;79.16;102280.75;5073242;28;20468;-36
2021/07/21 04:15:44;;;;;;;14.82;11.43;;;;;;;13.79;79.36;102283.06;5073320;28;20036;-36
2021/07/21 04:18:10;;;;;;;15.38;12.30;;;;;;;13.89;78.88;102277.97;5073263;28;20154;-36
2021/07/21 04:20:36;;;;;;;15.57;12.30;;;;;;;13.83;79.47;102274.25;5073767;28;20059;-36
2021/07/21 04:23:02;;;;;;;15.30;10.98;;;;;;;13.77;79.49;102268.88;5073937;28;20090;-36
2021/07/21 04:25:29;;;;;;;12.63;11.25;;;;;;;13.69;79.25;102261.78;5073928;28;20035;-36
2021/07/21 04:27:56;;;;;;;14.88;12.13;;;;;;;13.82;79.47;102272.59;5073330;28;20024;-36
2021/07/21 04:30:22;;;;;;;18.77;12.27;;;;;;;13.84;79.86;102283.25;5073815;28;20028;-36
2021/07/21 04:32:47;;;;;;;14.38;10.38;;;;;;;13.87;79.11;102270.06;5073215;28;20043;-36
2021/07/21 04:35:16;;;;;;;15.82;11.70;;;;;;;13.89;79.99;102292.41;5073538;28;20031;-36
2021/07/21 04:37:42;;;;;;;13.85;11.18;;;;;;;13.89;80.28;102288.84;5072816;28;20012;-36
2021/07/21 04:40:09;;;;;;;;;;;;;;;14.15;77.90;102296.88;5074397;28;20356;-36
2021/07/21 04:42:34;;;;;;;;;;;;;;;14.22;77.28;102288.66;5073170;28;19927;-36
2021/07/21 04:45:00;;;;;;;18.00;12.27;;;;;;;14.07;79.49;102296.28;5073136;28;19908;-36
2021/07/21 04:47:25;;;;;;;16.92;11.93;;;;;;;14.22;79.56;102301.44;5036264;28;1068309;-36
2021/07/21 04:49:51;;;;;;;15.90;11.90;;;;;;;14.25;79.28;102309.13;5073390;28;20029;-36
2021/07/21 04:52:20;;;;;;;16.10;12.10;;;;;;;14.29;80.00;102299.47;5073806;28;20290;-36
2021/07/21 04:54:45;;;;;;;16.83;12.88;;;;;;;14.35;79.69;102304.91;5074455;28;20025;-36
2021/07/21 04:57:10;;;;;;;15.23;12.33;;;;;;;14.39;81.17;102311.53;5073593;28;20029;-36
2021/07/21 04:59:37;;;;;;;15.48;12.68;;;;;;;14.46;80.34;102308.78;5073451;28;20032;-36
2021/07/21 05:02:04;;;;;;;16.58;14.05;;;;;;;14.61;78.19;102311.22;5073193;28;20484;-36
2021/07/21 05:04:30;;;;;;;18.60;13.13;;;;;;;14.70;79.26;102301.72;5073638;28;20017;-36
2021/07/21 05:06:55;;;;;;;16.37;14.33;;;;;;;14.83;79.19;102319.78;5073381;28;20114;-36
2021/07/21 05:09:20;;;;;;;17.37;13.03;;;;;;;14.94;78.97;102319.91;5073445;28;20073;-36
2021/07/21 05:11:46;;;;;;;20.17;15.33;;;;;;;15.16;78.38;102323.03;5073288;28;20283;-36
2021/07/21 05:14:11;;;;;;;19.77;14.90;;;;;;;15.33;77.50;102325.19;5072956;28;20271;-36
2021/07/21 05:16:36;;;;;;;18.75;15.07;;;;;;;15.35;78.03;102326.59;5073527;28;20270;-36
2021/07/21 05:19:02;;;;;;;19.20;15.10;;;;;;;15.49;78.27;102329.19;5072927;28;20017;-36
2021/07/21 05:21:30;;;;;;;20.05;15.90;;;;;;;15.55;77.34;102320.91;5073399;28;20032;-36
2021/07/21 05:23:55;;;;;;;19.73;13.98;;;;;;;15.69;76.21;102310.72;5073081;28;20070;-36
2021/07/21 05:26:21;;;;;;;20.02;14.35;;;;;;;15.88;74.53;102330.63;5073593;28;20473;-36
2021/07/21 05:28:46;;;;;;;21.15;14.88;;;;;;;15.89;74.37;102313.19;5073106;28;20423;-36
2021/07/21 05:31:11;;;;;;;18.23;13.20;;;;;;;16.06;75.43;102310.66;5073055;28;20032;-36
2021/07/21 05:33:37;;;;;;;18.02;14.18;;;;;;;16.22;74.96;102329.09;5072775;28;20286;-36
2021/07/21 05:36:03;;;;;;;19.35;14.18;;;;;;;16.34;74.92;102329.09;5073332;28;20024;-36
2021/07/21 05:38:29;;;;;;;18.20;13.32;;;;;;;16.41;74.92;102327.13;5072901;28;20023;-36
2021/07/21 05:40:55;;;;;;;20.67;14.32;;;;;;;16.42;73.68;102336.97;5073197;28;20021;-36
2021/07/21 05:43:22;;;;;;;18.00;12.93;;;;;;;16.44;75.20;102329.38;5072812;28;20456;-36
2021/07/21 05:45:47;;;;;;;19.85;13.70;;;;;;;16.57;73.08;102329.16;5073288;28;20016;-36
2021/07/21 05:48:12;;;;;;;17.77;13.50;;;;;;;16.73;73.45;102333.13;5072793;28;20037;-37
2021/07/21 05:50:38;;;;;;;18.40;13.20;;;;;;;16.67;71.85;102334.88;5073242;28;20359;-36
2021/07/21 05:53:03;;;;;;;;;;;;;;;16.90;73.26;102328.63;5073160;28;20456;-36
2021/07/21 05:55:28;;;;;;;19.67;12.97;;;;;;;16.92;71.38;102325.66;5072917;28;20264;-36
2021/07/21 05:57:54;;;;;;;17.23;12.57;;;;;;;17.00;70.45;102333.50;5072489;28;20622;-36
2021/07/21 06:00:19;;;;;;;;;;;;;;;17.16;71.72;102332.78;5072765;28;20029;-36
2021/07/21 06:02:44;;;;;;;20.20;14.00;;;;;;;17.10;71.47;102338.38;5073329;28;19916;-36
2021/07/21 06:05:10;;;;;;;;;;;;;;;17.27;70.87;102328.38;5073034;28;20055;-36
2021/07/21 06:07:36;;;;;;;18.02;12.98;;;;;;;17.09;68.70;102328.53;5072502;28;19904;-36
2021/07/21 06:10:03;;;;;;;18.85;12.32;;;;;;;17.11;70.05;102335.41;5072982;28;20063;-36
2021/07/21 06:12:28;;;;;;;17.08;12.70;;;;;;;17.18;70.24;102329.81;5072397;28;20047;-36
2021/07/21 06:14:53;;;;;;;14.38;12.20;;;;;;;17.23;68.54;102340.88;5072636;28;20016;-36
2021/07/21 06:17:19;;;;;;;;;;;;;;;17.39;69.80;102342.88;5073177;28;20059;-36
2021/07/21 06:19:45;;;;;;;18.25;12.63;;;;;;;17.21;68.55;102330.16;5073048;28;19951;-36
2021/07/21 06:22:12;;;;;;;;;;;;;;;17.45;68.82;102346.53;5073011;28;20440;-36
2021/07/21 06:24:37;;;;;;;17.17;11.52;;;;;;;17.24;66.26;102329.69;5072401;28;19904;-36
2021/07/21 06:27:03;;;;;;;;;;;;;;;17.39;67.06;102342.88;5073402;28;20020;-36
2021/07/21 06:29:29;;;;;;;18.52;11.65;;;;;;;17.34;65.27;102340.03;5072673;28;19904;-36
2021/07/21 06:31:54;;;;;;;;;;;;;;;17.51;67.19;102342.84;5072981;28;20402;-37
2021/07/21 06:34:20;;;;;;;25.95;11.23;;;;;;;17.50;65.35;102349.38;5072289;28;19999;-36
2021/07/21 06:36:45;;;;;;;19.58;11.10;;;;;;;17.61;66.19;102345.78;5072506;28;20027;-36
2021/07/21 06:39:10;;;;;;;;;;;;;;;17.79;67.28;102353.03;5072862;28;20028;-36
2021/07/21 06:41:36;;;;;;;16.27;9.18;;;;;;;17.90;65.51;102351.31;5072452;28;19915;-36
2021/07/21 06:44:01;;;;;;;;;;;;;;;18.06;63.78;102349.72;5072659;28;20020;-36
2021/07/21 06:46:28;;;;;;;12.45;9.55;;;;;;;18.08;65.14;102358.53;5073160;28;19916;-36
2021/07/21 06:48:54;;;;;;;18.77;9.45;;;;;;;18.18;64.00;102361.44;5072190;28;20044;-36
2021/07/21 06:51:20;;;;;;;12.65;8.93;;;;;;;18.21;60.70;102361.78;5072359;28;20082;-36
2021/07/21 06:53:46;;;;;;;11.45;8.25;;;;;;;18.27;61.02;102362.72;5072209;28;20063;-36
2021/07/21 06:56:12;;;;;;;;;;;;;;;18.42;61.93;102362.16;5073114;28;20058;-36
2021/07/21 06:58:38;;;;;;;14.10;8.18;;;;;;;18.47;61.69;102370.47;5072522;28;20324;-36
2021/07/21 07:01:03;;;;;;;;;;;;;;;18.61;63.27;102371.81;5073157;28;20115;-36
2021/07/21 07:03:28;;;;;;;14.05;7.45;;;;;;;18.69;59.81;102373.31;5072072;28;19908;-36
2021/07/21 07:05:54;;;;;;;;;;;;;;;18.82;62.87;102373.00;5072745;28;20032;-36
2021/07/21 07:08:20;;;;;;;18.95;8.73;;;;;;;18.85;63.29;102382.66;5071966;28;19954;-36
2021/07/21 07:10:45;;;;;;;;;;;;;;;18.92;62.86;102380.56;5072884;28;20123;-36
2021/07/21 07:13:10;;;;;;;15.33;9.13;;;;;;;18.93;60.08;102384.97;5075338;28;19908;-36
2021/07/21 07:15:35;;;;;;;;;;;;;;;18.95;60.50;102377.34;5076131;28;20354;-36
2021/07/21 07:18:01;;;;;;;14.25;9.93;;;;;;;18.88;60.71;102382.97;5076175;28;20333;-36
2021/07/21 07:20:26;;;;;;;;;;;;;;;18.98;61.37;102383.16;5077004;28;20035;-36
2021/07/21 07:22:52;;;;;;;14.27;8.73;;;;;;;19.01;58.42;102384.56;5075797;28;19908;-36
2021/07/21 07:25:17;;;;;;;;;;;;;;;19.08;57.68;102385.22;5076282;28;20359;-36
2021/07/21 07:27:42;;;;;;;12.88;7.75;;;;;;;19.01;58.01;102366.19;5075977;28;20313;-36
2021/07/21 07:30:10;;;;;;;;;;;;;;;19.16;57.76;102382.03;5076648;28;20059;-36
2021/07/21 07:32:36;;;;;;;14.23;7.60;;;;;;;19.20;57.41;102379.63;5074944;28;19909;-36
2021/07/21 07:35:01;;;;;;;;;;;;;;;19.33;59.23;102395.75;5075727;28;20039;-36
2021/07/21 07:37:26;;;;;;;11.98;8.23;;;;;;;19.37;59.14;102380.41;5075447;28;19948;-36
2021/07/21 07:39:52;;;;;;;;;;;;;;;19.50;59.38;102382.81;5076197;28;20024;-36
2021/07/21 07:42:17;;;;;;;9.38;7.22;;;;;;;19.46;57.57;102389.03;5076149;28;19977;-36
2021/07/21 07:44:42;;;;;;;;;;;;;;;19.59;57.20;102391.44;5075548;28;20450;-36
2021/07/21 07:47:08;;;;;;;13.50;8.23;;;;;;;19.69;59.39;102390.78;5075388;28;20396;-36
2021/07/21 07:49:33;;;;;;;;;;;;;;;19.75;56.26;102393.31;5075484;28;20100;-36
2021/07/21 07:51:59;;;;;;;10.40;7.18;;;;;;;19.77;57.82;102395.81;5075338;28;19928;-36
2021/07/21 07:54:24;;;;;;;;;;;;;;;19.90;56.55;102392.66;5075292;28;20020;-36
2021/07/21 07:56:50;;;;;;;10.73;7.55;;;;;;;19.80;57.67;102390.63;5075360;28;19904;-36
2021/07/21 07:59:15;;;;;;;;;;;;;;;19.98;58.79;102392.22;5075585;28;20055;-36
2021/07/21 08:01:40;;;;;;;11.40;7.60;;;;;;;19.91;54.63;102375.13;5075136;28;19947;-36
2021/07/21 08:04:06;;;;;;;;;;;;;;;20.08;56.79;102391.53;5075421;28;20047;-36
2021/07/21 08:06:31;;;;;;;12.17;8.53;;;;;;;20.04;55.91;102393.13;5074532;28;19908;-36
2021/07/21 08:08:56;;;;;;;;;;;;;;;20.13;56.18;102393.50;5074921;28;20278;-36
2021/07/21 08:11:22;;;;;;;10.50;7.17;;;;;;;20.12;56.24;102395.41;5075078;28;19912;-36
2021/07/21 08:13:47;;;;;;;9.32;6.97;;;;;;;20.09;53.86;102382.19;5074916;28;20037;-36
2021/07/21 08:16:13;;;;;;;;;;;;;;;20.35;55.43;102394.28;5075653;28;20033;-36
2021/07/21 08:18:39;;;;;;;10.98;7.07;;;;;;;20.40;54.00;102386.09;5074585;28;19911;-36
2021/07/21 08:21:05;;;;;;;11.75;7.20;;;;;;;20.39;51.94;102386.34;5074726;28;20028;-36
2021/07/21 08:23:30;;;;;;;;;;;;;;;20.56;53.60;102387.09;5074037;28;20035;-36
2021/07/21 08:25:56;;;;;;;13.93;7.40;;;;;;;20.44;51.31;102389.13;5075113;28;19904;-36
2021/07/21 08:28:21;;;;;;;12.70;7.07;;;;;;;20.53;52.56;102393.09;5074427;28;20361;-36
2021/07/21 08:30:47;;;;;;;;;;;;;;;20.67;53.92;102393.50;5075341;28;20028;-36
2021/07/21 08:33:13;;;;;;;9.52;6.43;;;;;;;20.66;52.35;102389.13;5074012;28;19975;-36
2021/07/21 08:35:39;;;;;;;14.65;6.68;;;;;;;20.90;51.91;102389.59;5074044;28;20039;-36
2021/07/21 08:38:06;;;;;;;12.07;6.10;;;;;;;20.94;52.65;102387.97;5073339;28;20036;-36
2021/07/21 08:40:33;;;;;;;7.97;6.40;;;;;;;20.88;49.62;102384.34;5075052;28;20043;-36
2021/07/21 08:42:58;;;;;;;9.90;6.20;;;;;;;20.77;49.95;102386.19;5074472;28;20028;-36
2021/07/21 08:45:24;;;;;;;;;;;;;;;21.00;52.92;102381.41;5074983;28;20031;-36
2021/07/21 08:47:49;;;;;;;10.43;6.82;;;;;;;20.94;49.91;102382.47;5074357;28;19912;-36
2021/07/21 08:50:15;;;;;;;;;;;;;;;21.03;51.05;102391.88;5074508;28;20066;-36
2021/07/21 08:52:40;;;;;;;9.60;6.20;;;;;;;21.10;51.43;102387.00;5073776;28;20007;-36
2021/07/21 08:55:08;;;;;;;10.50;6.45;;;;;;;21.13;49.68;102393.88;5074213;28;20021;-36
2021/07/21 08:57:34;;;;;;;10.88;4.80;;;;;;;21.33;48.46;102377.53;5074254;28;20024;-37
2021/07/21 09:00:00;;;;;;;;;;;;;;;21.54;50.77;102375.72;5074864;28;20029;-36
2021/07/21 09:02:27;;;;;;;10.05;6.63;;;;;;;21.41;49.09;102379.78;5073611;28;19951;-37
2021/07/21 09:04:53;;;;;;;10.07;6.05;;;;;;;21.56;48.31;102382.59;5073657;28;20445;-36
2021/07/21 09:07:19;;;;;;;11.98;5.72;;;;;;;21.67;50.15;102383.50;5074450;28;20028;-37
2021/07/21 09:09:44;;;;;;;;;;;;;;;21.93;50.44;102380.84;5073823;28;20086;-36
2021/07/21 09:12:10;;;;;;;8.25;5.60;;;;;;;22.08;49.01;102372.63;5074094;28;19920;-37
2021/07/21 09:14:38;;;;;;;9.32;5.88;;;;;;;22.16;49.31;102377.63;5073541;28;20023;-36
2021/07/21 09:17:09;;;;;;;10.10;6.63;;;;;;;22.27;48.51;102387.56;5073972;28;20056;-37
2021/07/21 09:19:46;;;;;;;10.93;6.95;;;;;;;22.32;50.10;102387.59;5072136;28;20373;-36
2021/07/21 09:22:16;;;;;;;10.70;6.30;;;;;;;22.05;51.42;102389.69;5073503;28;20028;-36
2021/07/21 09:24:43;;;;;;;10.48;6.20;;;;;;;22.13;49.57;102385.63;5073592;28;20043;-36
2021/07/21 09:27:09;;;;;;;9.30;6.38;;;;;;;22.20;50.41;102381.47;5073601;28;20384;-36
2021/07/21 09:29:34;;;;;;;10.48;7.05;;;;;;;22.31;49.78;102391.44;5073196;28;20021;-36
2021/07/21 09:32:01;;;;;;;11.50;7.35;;;;;;;22.27;48.77;102384.81;5073386;28;20032;-37
2021/07/21 09:34:26;;;;;;;9.30;6.38;;;;;;;22.43;48.01;102387.59;5073035;28;20085;-36
2021/07/21 09:37:12;;;;;;;8.75;6.22;;;;;;;22.49;47.93;102392.00;5073191;28;20111;-36
2021/07/21 09:39:40;;;;;;;10.73;6.40;;;;;;;22.55;48.84;102374.41;5073514;28;20413;-36
2021/07/21 09:42:07;;;;;;;9.63;6.22;;;;;;;22.86;47.46;102386.25;5073069;28;20031;-36
2021/07/21 09:44:41;;;;;;;10.25;6.45;;;;;;;22.98;46.38;102383.22;5073207;28;20098;-36
2021/07/21 09:47:10;;;;;;;8.35;6.20;;;;;;;22.61;45.29;102367.78;5073466;28;20127;-37
2021/07/21 09:49:36;;;;;;;11.10;6.15;;;;;;;22.87;48.73;102374.91;5073275;28;20036;-37
2021/07/21 09:52:13;;;;;;;9.02;6.45;;;;;;;22.83;46.92;102387.59;5073116;28;20084;-37
2021/07/21 09:54:38;;;;;;;10.35;6.32;;;;;;;22.54;45.36;102383.75;5073703;28;20031;-37
2021/07/21 09:57:14;;;;;;;9.23;6.32;;;;;;;22.71;46.08;102372.47;5073368;28;20025;-36
2021/07/21 09:59:40;;;;;;;9.75;6.22;;;;;;;23.05;45.66;102381.00;5072816;28;20021;-36
2021/07/21 10:02:15;;;;;;;10.77;6.82;;;;;;;23.18;47.04;102374.06;5073533;28;20028;-37
2021/07/21 10:04:43;;;;;;;10.57;6.45;;;;;;;23.34;44.68;102365.50;5072389;28;20027;-36
2021/07/21 10:07:53;;;;;;;11.90;7.00;;;;;;;23.50;44.65;102382.00;5072891;28;20027;-37
2021/07/21 10:09:54;;;;;;;10.55;7.10;;;;;;;23.04;44.50;102382.13;5068524;28;20047;-36
2021/07/21 10:12:20;;;;;;;10.25;6.72;;;;;;;22.90;44.43;102378.28;5073086;28;20032;-37
2021/07/21 10:14:56;;;;;;;10.68;6.63;;;;;;;22.88;45.91;102373.84;5072997;28;20029;-37
2021/07/21 10:17:21;;;;;;;10.77;7.60;;;;;;;22.73;44.54;102359.22;5071894;28;20017;-36
2021/07/21 10:19:46;;;;;;;10.50;6.55;;;;;;;22.87;46.78;102368.56;5072428;28;20021;-37
2021/07/21 10:22:12;;;;;;;11.20;7.20;;;;;;;23.22;44.53;102372.41;5072830;28;20054;-37
2021/07/21 10:24:39;;;;;;;10.80;7.03;;;;;;;23.27;43.66;102370.47;5072802;28;20119;-36
2021/07/21 10:27:04;;;;;;;7.10;5.22;;;;;;;23.54;45.70;102364.59;5071979;28;20475;-36
2021/07/21 10:29:31;;;;;;;12.10;6.68;;;;;;;23.60;45.90;102368.16;5072540;28;20047;-37
2021/07/21 10:31:57;;;;;;;9.88;6.32;;;;;;;23.79;46.49;102365.63;5072790;28;20135;-37
2021/07/21 10:34:23;;;;;;;12.15;6.75;;;;;;;24.01;47.12;102370.75;5072691;28;20108;-36
2021/07/21 10:36:50;;;;;;;12.10;6.97;;;;;;;23.86;45.04;102367.00;5072357;28;20020;-37
2021/07/21 10:39:19;;;;;;;12.98;7.00;;;;;;;23.87;44.05;102354.81;5072436;28;20118;-37
2021/07/21 10:41:46;;;;;;;12.15;7.18;;;;;;;24.15;44.02;102366.25;5072136;28;20074;-37
2021/07/21 10:44:16;;;;;;;11.70;7.47;;;;;;;24.02;45.69;102366.91;5070978;28;20529;-36
2021/07/21 10:46:43;;;;;;;9.50;7.13;;;;;;;24.27;44.28;102368.69;5072864;28;20049;-37
2021/07/21 10:49:38;;;;;;;9.30;7.35;;;;;;;24.28;44.29;102351.81;5076493;28;20028;-36
2021/07/21 11:00:15;;;;;;;9.80;7.22;;;;;;;24.14;45.09;102367.38;5076350;28;20132;-37
2021/07/21 11:02:41;;;;;;;8.93;7.05;;;;;;;24.21;44.09;102365.13;5075958;28;20375;-36
2021/07/21 11:05:09;;;;;;;11.10;7.20;;;;;;;24.16;43.92;102345.81;5075686;28;20036;-36
2021/07/21 11:07:54;;;;;;;9.65;7.15;;;;;;;24.08;43.00;102358.28;5075989;28;20031;-37
2021/07/21 11:10:50;;;;;;;8.30;6.20;;;;;;;23.98;45.24;102349.25;5075568;28;20032;-36
2021/07/21 11:13:27;;;;;;;8.70;6.40;;;;;;;23.79;44.22;102349.06;5033634;28;20359;-37
2021/07/21 11:15:52;;;;;;;12.00;7.50;;;;;;;23.87;44.75;102337.44;5033418;28;20036;-37
2021/07/21 11:18:23;;;;;;;13.82;7.05;;;;;;;24.07;46.67;102350.28;5033454;28;20038;-36
2021/07/21 11:21:12;;;;;;;10.77;7.05;;;;;;;23.87;45.43;102351.25;5033684;28;20025;-36
2021/07/21 11:23:53;;;;;;;9.02;7.13;;;;;;;23.80;45.17;102351.53;5033354;28;20025;-36
2021/07/21 11:26:38;;;;;;;13.18;8.23;;;;;;;23.85;44.40;102357.03;5033899;28;20021;-37
2021/07/21 11:29:22;;;;;;;12.23;8.35;;;;;;;23.47;43.91;102349.44;5033922;28;20025;-36
2021/07/21 11:31:50;;;;;;;9.77;7.50;;;;;;;23.90;44.67;102345.13;5033275;28;20033;-37
2021/07/21 11:34:26;;;;;;;9.70;7.05;;;;;;;24.03;43.86;102338.16;5033039;28;20037;-36
2021/07/21 11:36:56;;;;;;;8.95;7.30;;;;;;;24.19;43.06;102348.00;5033619;28;20041;-37